sensor_id;sensor_type;location;lat;lon;timestamp;temperature;humidity
1307;DHT22;646;48.696;9.114;2022-10-19T00:01:12;11.60;99.90
1307;DHT22;646;48.696;9.114;2022-10-19T00:03:39;12.20;99.90
1307;DHT22;646;48.696;9.114;2022-10-19T00:08:44;12.10;99.90
1307;DHT22;646;48.696;9.114;2022-10-19T00:11:10;12.20;99.90
1307;DHT22;646;48.696;9.114;2022-10-19T00:13:36;11.90;99.90
1307;DHT22;646;48.696;9.114;2022-10-19T00:16:07;12.00;99.90
1307;DHT22;646;48.696;9.114;2022-10-19T00:18:33;11.80;99.90
1307;DHT22;646;48.696;9.114;2022-10-19T00:21:06;11.70;99.90
1307;DHT22;646;48.696;9.114;2022-10-19T00:23:33;12.20;99.90
1307;DHT22;646;48.696;9.114;2022-10-19T00:25:59;12.10;99.90
1307;DHT22;646;48.696;9.114;2022-10-19T00:28:25;12.10;99.90
1307;DHT22;646;48.696;9.114;2022-10-19T00:30:51;11.50;99.90
1307;DHT22;646;48.696;9.114;2022-10-19T00:33:16;11.70;99.90
1307;DHT22;646;48.696;9.114;2022-10-19T00:35:49;11.60;99.90
1307;DHT22;646;48.696;9.114;2022-10-19T00:38:19;11.70;99.90
1307;DHT22;646;48.696;9.114;2022-10-19T00:40:45;11.90;99.90
1307;DHT22;646;48.696;9.114;2022-10-19T00:43:15;11.70;99.90
1307;DHT22;646;48.696;9.114;2022-10-19T00:45:42;12.00;99.90
1307;DHT22;646;48.696;9.114;2022-10-19T00:48:08;11.50;99.90
1307;DHT22;646;48.696;9.114;2022-10-19T00:50:35;11.50;99.90
1307;DHT22;646;48.696;9.114;2022-10-19T00:53:01;11.80;99.90
1307;DHT22;646;48.696;9.114;2022-10-19T00:55:26;11.80;99.90
1307;DHT22;646;48.696;9.114;2022-10-19T00:57:52;11.90;99.90
1307;DHT22;646;48.696;9.114;2022-10-19T01:00:18;11.90;99.90
1307;DHT22;646;48.696;9.114;2022-10-19T01:02:44;11.10;99.90
1307;DHT22;646;48.696;9.114;2022-10-19T01:05:10;11.80;99.90
1307;DHT22;646;48.696;9.114;2022-10-19T01:07:36;11.70;99.90
1307;DHT22;646;48.696;9.114;2022-10-19T01:10:02;11.10;99.90
1307;DHT22;646;48.696;9.114;2022-10-19T01:12:47;11.80;99.90
1307;DHT22;646;48.696;9.114;2022-10-19T01:18:11;11.00;99.90
1307;DHT22;646;48.696;9.114;2022-10-19T01:23:29;11.70;99.90
1307;DHT22;646;48.696;9.114;2022-10-19T01:26:36;11.20;99.90
1307;DHT22;646;48.696;9.114;2022-10-19T01:34:53;11.80;99.90
1307;DHT22;646;48.696;9.114;2022-10-19T01:37:31;11.50;99.90
1307;DHT22;646;48.696;9.114;2022-10-19T01:40:08;11.70;99.90
1307;DHT22;646;48.696;9.114;2022-10-19T01:42:45;11.60;99.90
1307;DHT22;646;48.696;9.114;2022-10-19T01:45:18;11.60;99.90
1307;DHT22;646;48.696;9.114;2022-10-19T01:50:38;11.70;99.90
1307;DHT22;646;48.696;9.114;2022-10-19T01:53:07;11.50;99.90
1307;DHT22;646;48.696;9.114;2022-10-19T01:55:33;12.00;99.90
1307;DHT22;646;48.696;9.114;2022-10-19T01:58:04;12.00;99.90
1307;DHT22;646;48.696;9.114;2022-10-19T02:00:34;12.40;99.90
1307;DHT22;646;48.696;9.114;2022-10-19T02:03:00;12.50;99.90
1307;DHT22;646;48.696;9.114;2022-10-19T02:05:30;12.30;99.90
1307;DHT22;646;48.696;9.114;2022-10-19T02:08:01;12.60;99.90
1307;DHT22;646;48.696;9.114;2022-10-19T02:10:30;12.20;99.90
1307;DHT22;646;48.696;9.114;2022-10-19T02:12:57;12.50;99.90
1307;DHT22;646;48.696;9.114;2022-10-19T02:15:26;12.30;99.90
1307;DHT22;646;48.696;9.114;2022-10-19T02:17:55;12.80;99.90
1307;DHT22;646;48.696;9.114;2022-10-19T02:20:22;12.90;99.90
1307;DHT22;646;48.696;9.114;2022-10-19T02:22:47;12.40;99.90
1307;DHT22;646;48.696;9.114;2022-10-19T02:25:14;12.70;99.90
1307;DHT22;646;48.696;9.114;2022-10-19T02:27:40;13.00;99.90
1307;DHT22;646;48.696;9.114;2022-10-19T02:30:08;12.90;99.90
1307;DHT22;646;48.696;9.114;2022-10-19T02:32:34;12.90;99.90
1307;DHT22;646;48.696;9.114;2022-10-19T02:35:00;13.10;99.90
1307;DHT22;646;48.696;9.114;2022-10-19T02:37:26;13.00;99.90
1307;DHT22;646;48.696;9.114;2022-10-19T02:39:51;13.30;99.90
1307;DHT22;646;48.696;9.114;2022-10-19T02:42:24;12.70;99.90
1307;DHT22;646;48.696;9.114;2022-10-19T02:44:59;13.40;99.90
1307;DHT22;646;48.696;9.114;2022-10-19T02:47:42;13.10;99.90
1307;DHT22;646;48.696;9.114;2022-10-19T02:50:10;13.20;99.90
1307;DHT22;646;48.696;9.114;2022-10-19T02:52:36;13.10;99.90
1307;DHT22;646;48.696;9.114;2022-10-19T02:55:03;12.70;99.90
1307;DHT22;646;48.696;9.114;2022-10-19T02:57:28;13.30;99.90
1307;DHT22;646;48.696;9.114;2022-10-19T02:59:56;12.90;99.90
1307;DHT22;646;48.696;9.114;2022-10-19T03:02:22;13.40;99.90
1307;DHT22;646;48.696;9.114;2022-10-19T03:04:48;13.30;99.90
1307;DHT22;646;48.696;9.114;2022-10-19T03:07:15;13.20;99.90
1307;DHT22;646;48.696;9.114;2022-10-19T03:09:42;13.30;99.90
1307;DHT22;646;48.696;9.114;2022-10-19T03:12:09;13.60;99.90
1307;DHT22;646;48.696;9.114;2022-10-19T03:14:34;13.50;99.90
1307;DHT22;646;48.696;9.114;2022-10-19T03:17:00;13.70;99.90
1307;DHT22;646;48.696;9.114;2022-10-19T03:19:25;13.20;99.90
1307;DHT22;646;48.696;9.114;2022-10-19T03:21:51;13.80;99.90
1307;DHT22;646;48.696;9.114;2022-10-19T03:24:16;13.50;99.90
1307;DHT22;646;48.696;9.114;2022-10-19T03:26:42;13.20;99.90
1307;DHT22;646;48.696;9.114;2022-10-19T03:29:07;13.70;99.90
1307;DHT22;646;48.696;9.114;2022-10-19T03:31:33;13.60;99.90
1307;DHT22;646;48.696;9.114;2022-10-19T03:33:58;14.00;99.90
1307;DHT22;646;48.696;9.114;2022-10-19T03:36:26;13.60;99.90
1307;DHT22;646;48.696;9.114;2022-10-19T03:38:54;13.90;99.90
1307;DHT22;646;48.696;9.114;2022-10-19T03:41:21;13.90;99.90
1307;DHT22;646;48.696;9.114;2022-10-19T03:43:47;13.50;99.90
1307;DHT22;646;48.696;9.114;2022-10-19T03:46:12;13.60;99.90
1307;DHT22;646;48.696;9.114;2022-10-19T03:48:38;14.10;99.90
1307;DHT22;646;48.696;9.114;2022-10-19T03:51:10;14.40;99.90
1307;DHT22;646;48.696;9.114;2022-10-19T03:53:37;13.60;99.90
1307;DHT22;646;48.696;9.114;2022-10-19T03:56:15;13.90;99.90
1307;DHT22;646;48.696;9.114;2022-10-19T03:58:43;13.80;99.90
1307;DHT22;646;48.696;9.114;2022-10-19T04:01:11;14.30;99.90
1307;DHT22;646;48.696;9.114;2022-10-19T04:03:37;14.50;99.90
1307;DHT22;646;48.696;9.114;2022-10-19T04:06:09;14.30;99.90
1307;DHT22;646;48.696;9.114;2022-10-19T04:08:36;14.50;99.90
1307;DHT22;646;48.696;9.114;2022-10-19T04:11:07;14.40;99.90
1307;DHT22;646;48.696;9.114;2022-10-19T04:13:33;14.10;99.90
1307;DHT22;646;48.696;9.114;2022-10-19T04:15:59;14.00;99.90
1307;DHT22;646;48.696;9.114;2022-10-19T04:18:25;13.90;99.90
1307;DHT22;646;48.696;9.114;2022-10-19T04:20:57;14.40;99.90
1307;DHT22;646;48.696;9.114;2022-10-19T04:23:25;14.30;99.90
1307;DHT22;646;48.696;9.114;2022-10-19T04:25:51;14.20;99.90
1307;DHT22;646;48.696;9.114;2022-10-19T04:28:17;14.50;99.90
1307;DHT22;646;48.696;9.114;2022-10-19T04:30:42;14.70;99.90
1307;DHT22;646;48.696;9.114;2022-10-19T04:33:08;14.80;99.90
1307;DHT22;646;48.696;9.114;2022-10-19T04:35:34;14.70;99.90
1307;DHT22;646;48.696;9.114;2022-10-19T04:37:59;14.50;99.90
1307;DHT22;646;48.696;9.114;2022-10-19T04:40:25;14.10;99.90
1307;DHT22;646;48.696;9.114;2022-10-19T04:42:50;14.20;99.90
1307;DHT22;646;48.696;9.114;2022-10-19T04:45:16;14.10;99.90
1307;DHT22;646;48.696;9.114;2022-10-19T04:47:41;14.50;99.90
1307;DHT22;646;48.696;9.114;2022-10-19T04:50:07;14.40;99.90
1307;DHT22;646;48.696;9.114;2022-10-19T04:52:33;14.80;99.90
1307;DHT22;646;48.696;9.114;2022-10-19T04:54:59;14.10;99.90
1307;DHT22;646;48.696;9.114;2022-10-19T04:57:25;14.80;99.90
1307;DHT22;646;48.696;9.114;2022-10-19T04:59:50;14.50;99.90
1307;DHT22;646;48.696;9.114;2022-10-19T05:02:16;14.70;99.90
1307;DHT22;646;48.696;9.114;2022-10-19T05:04:41;14.60;99.90
1307;DHT22;646;48.696;9.114;2022-10-19T05:07:07;14.60;99.90
1307;DHT22;646;48.696;9.114;2022-10-19T05:09:33;14.00;99.90
1307;DHT22;646;48.696;9.114;2022-10-19T05:11:58;14.50;99.90
1307;DHT22;646;48.696;9.114;2022-10-19T05:14:24;14.50;99.90
1307;DHT22;646;48.696;9.114;2022-10-19T05:16:49;14.30;99.90
1307;DHT22;646;48.696;9.114;2022-10-19T05:19:15;14.20;99.90
1307;DHT22;646;48.696;9.114;2022-10-19T05:21:40;14.30;99.90
1307;DHT22;646;48.696;9.114;2022-10-19T05:24:06;14.40;99.90
1307;DHT22;646;48.696;9.114;2022-10-19T05:26:31;14.70;99.90
1307;DHT22;646;48.696;9.114;2022-10-19T05:28:59;14.90;99.90
1307;DHT22;646;48.696;9.114;2022-10-19T05:31:32;14.20;99.90
1307;DHT22;646;48.696;9.114;2022-10-19T05:33:59;14.80;99.90
1307;DHT22;646;48.696;9.114;2022-10-19T05:36:27;14.70;99.90
1307;DHT22;646;48.696;9.114;2022-10-19T05:38:57;14.70;99.90
1307;DHT22;646;48.696;9.114;2022-10-19T05:41:24;14.90;99.90
1307;DHT22;646;48.696;9.114;2022-10-19T05:43:58;14.90;99.90
1307;DHT22;646;48.696;9.114;2022-10-19T05:46:25;14.80;99.90
1307;DHT22;646;48.696;9.114;2022-10-19T05:48:50;14.70;99.90
1307;DHT22;646;48.696;9.114;2022-10-19T05:51:19;14.60;99.90
1307;DHT22;646;48.696;9.114;2022-10-19T05:53:45;14.90;99.90
1307;DHT22;646;48.696;9.114;2022-10-19T05:56:22;14.70;99.90
1307;DHT22;646;48.696;9.114;2022-10-19T05:58:49;14.80;99.90
1307;DHT22;646;48.696;9.114;2022-10-19T06:01:15;14.60;99.90
1307;DHT22;646;48.696;9.114;2022-10-19T06:03:43;14.30;99.90
1307;DHT22;646;48.696;9.114;2022-10-19T06:06:09;14.40;99.90
1307;DHT22;646;48.696;9.114;2022-10-19T06:08:35;14.90;99.90
1307;DHT22;646;48.696;9.114;2022-10-19T06:11:24;14.60;99.90
1307;DHT22;646;48.696;9.114;2022-10-19T06:14:13;14.80;99.90
1307;DHT22;646;48.696;9.114;2022-10-19T06:16:39;14.80;99.90
1307;DHT22;646;48.696;9.114;2022-10-19T06:19:05;14.90;99.90
1307;DHT22;646;48.696;9.114;2022-10-19T06:21:32;14.80;99.90
1307;DHT22;646;48.696;9.114;2022-10-19T06:24:00;14.20;99.90
1307;DHT22;646;48.696;9.114;2022-10-19T06:26:28;14.20;99.90
1307;DHT22;646;48.696;9.114;2022-10-19T06:28:55;14.70;99.90
1307;DHT22;646;48.696;9.114;2022-10-19T06:31:21;14.70;99.90
1307;DHT22;646;48.696;9.114;2022-10-19T06:33:46;14.60;99.90
1307;DHT22;646;48.696;9.114;2022-10-19T06:36:15;14.60;99.90
1307;DHT22;646;48.696;9.114;2022-10-19T06:38:42;14.70;99.90
1307;DHT22;646;48.696;9.114;2022-10-19T06:41:09;14.30;99.90
1307;DHT22;646;48.696;9.114;2022-10-19T06:43:35;14.90;99.90
1307;DHT22;646;48.696;9.114;2022-10-19T06:46:05;14.40;99.90
1307;DHT22;646;48.696;9.114;2022-10-19T06:48:31;14.70;99.90
1307;DHT22;646;48.696;9.114;2022-10-19T06:51:01;14.90;99.90
1307;DHT22;646;48.696;9.114;2022-10-19T06:53:27;14.90;99.90
1307;DHT22;646;48.696;9.114;2022-10-19T06:55:57;14.90;99.90
1307;DHT22;646;48.696;9.114;2022-10-19T06:58:23;14.90;99.90
1307;DHT22;646;48.696;9.114;2022-10-19T07:00:54;14.50;99.90
1307;DHT22;646;48.696;9.114;2022-10-19T07:03:21;14.70;99.90
1307;DHT22;646;48.696;9.114;2022-10-19T07:05:59;14.70;99.90
1307;DHT22;646;48.696;9.114;2022-10-19T07:08:26;14.90;99.90
1307;DHT22;646;48.696;9.114;2022-10-19T07:10:57;15.10;99.90
1307;DHT22;646;48.696;9.114;2022-10-19T07:13:23;14.90;99.90
1307;DHT22;646;48.696;9.114;2022-10-19T07:15:54;14.80;99.90
1307;DHT22;646;48.696;9.114;2022-10-19T07:18:20;15.00;99.90
1307;DHT22;646;48.696;9.114;2022-10-19T07:20:54;14.90;99.90
1307;DHT22;646;48.696;9.114;2022-10-19T07:23:19;14.70;99.90
1307;DHT22;646;48.696;9.114;2022-10-19T07:25:45;15.20;99.90
1307;DHT22;646;48.696;9.114;2022-10-19T07:28:10;15.50;99.90
1307;DHT22;646;48.696;9.114;2022-10-19T07:30:37;15.50;99.90
1307;DHT22;646;48.696;9.114;2022-10-19T07:33:03;15.40;99.90
1307;DHT22;646;48.696;9.114;2022-10-19T07:35:29;15.40;99.90
1307;DHT22;646;48.696;9.114;2022-10-19T07:37:55;15.40;99.90
1307;DHT22;646;48.696;9.114;2022-10-19T07:40:20;15.60;99.90
1307;DHT22;646;48.696;9.114;2022-10-19T07:42:45;15.30;99.90
1307;DHT22;646;48.696;9.114;2022-10-19T07:45:11;15.60;99.90
1307;DHT22;646;48.696;9.114;2022-10-19T07:47:36;15.90;99.90
1307;DHT22;646;48.696;9.114;2022-10-19T07:50:02;15.50;99.90
1307;DHT22;646;48.696;9.114;2022-10-19T07:52:28;15.50;99.90
1307;DHT22;646;48.696;9.114;2022-10-19T07:54:53;15.60;99.90
1307;DHT22;646;48.696;9.114;2022-10-19T07:57:19;15.60;99.90
1307;DHT22;646;48.696;9.114;2022-10-19T07:59:46;15.50;99.90
1307;DHT22;646;48.696;9.114;2022-10-19T08:02:15;15.70;99.90
1307;DHT22;646;48.696;9.114;2022-10-19T08:04:41;15.10;99.90
1307;DHT22;646;48.696;9.114;2022-10-19T08:07:07;15.70;99.90
1307;DHT22;646;48.696;9.114;2022-10-19T08:09:32;16.10;99.90
1307;DHT22;646;48.696;9.114;2022-10-19T08:11:58;15.80;99.90
1307;DHT22;646;48.696;9.114;2022-10-19T08:14:23;16.00;99.90
1307;DHT22;646;48.696;9.114;2022-10-19T08:16:49;16.10;99.90
1307;DHT22;646;48.696;9.114;2022-10-19T08:19:15;16.10;99.90
1307;DHT22;646;48.696;9.114;2022-10-19T08:21:42;16.40;99.90
1307;DHT22;646;48.696;9.114;2022-10-19T08:24:10;16.40;99.90
1307;DHT22;646;48.696;9.114;2022-10-19T08:26:37;16.00;99.90
1307;DHT22;646;48.696;9.114;2022-10-19T08:29:12;16.20;99.90
1307;DHT22;646;48.696;9.114;2022-10-19T08:31:38;16.80;99.90
1307;DHT22;646;48.696;9.114;2022-10-19T08:34:04;16.60;99.90
1307;DHT22;646;48.696;9.114;2022-10-19T08:36:30;17.00;99.90
1307;DHT22;646;48.696;9.114;2022-10-19T08:38:57;17.10;99.90
1307;DHT22;646;48.696;9.114;2022-10-19T08:44:56;16.90;99.90
1307;DHT22;646;48.696;9.114;2022-10-19T08:47:44;16.90;99.90
1307;DHT22;646;48.696;9.114;2022-10-19T08:50:25;16.80;99.90
1307;DHT22;646;48.696;9.114;2022-10-19T08:52:59;17.00;99.90
1307;DHT22;646;48.696;9.114;2022-10-19T08:58:35;17.10;99.90
1307;DHT22;646;48.696;9.114;2022-10-19T09:04:21;16.60;99.90
1307;DHT22;646;48.696;9.114;2022-10-19T09:07:44;16.50;99.90
1307;DHT22;646;48.696;9.114;2022-10-19T09:09:50;17.00;99.90
1307;DHT22;646;48.696;9.114;2022-10-19T09:15:14;16.90;99.90
1307;DHT22;646;48.696;9.114;2022-10-19T09:17:42;17.10;99.90
1307;DHT22;646;48.696;9.114;2022-10-19T09:20:16;17.00;99.90
1307;DHT22;646;48.696;9.114;2022-10-19T09:22:42;17.10;99.90
1307;DHT22;646;48.696;9.114;2022-10-19T09:27:39;16.60;99.90
1307;DHT22;646;48.696;9.114;2022-10-19T09:30:20;16.50;99.90
1307;DHT22;646;48.696;9.114;2022-10-19T09:32:48;16.70;99.90
1307;DHT22;646;48.696;9.114;2022-10-19T09:35:37;16.80;99.90
1307;DHT22;646;48.696;9.114;2022-10-19T09:38:06;16.80;99.90
1307;DHT22;646;48.696;9.114;2022-10-19T09:40:33;16.50;99.90
1307;DHT22;646;48.696;9.114;2022-10-19T09:42:59;17.00;99.90
1307;DHT22;646;48.696;9.114;2022-10-19T09:45:51;16.50;99.90
1307;DHT22;646;48.696;9.114;2022-10-19T09:48:51;17.00;99.90
1307;DHT22;646;48.696;9.114;2022-10-19T09:51:18;16.80;99.90
1307;DHT22;646;48.696;9.114;2022-10-19T09:53:52;16.90;99.90
1307;DHT22;646;48.696;9.114;2022-10-19T09:56:23;17.10;99.90
1307;DHT22;646;48.696;9.114;2022-10-19T09:58:52;16.30;99.90
1307;DHT22;646;48.696;9.114;2022-10-19T10:01:34;16.70;99.90
1307;DHT22;646;48.696;9.114;2022-10-19T10:04:17;16.30;99.90
1307;DHT22;646;48.696;9.114;2022-10-19T10:06:45;16.80;99.90
1307;DHT22;646;48.696;9.114;2022-10-19T10:09:21;16.60;99.90
1307;DHT22;646;48.696;9.114;2022-10-19T10:11:49;16.80;99.90
1307;DHT22;646;48.696;9.114;2022-10-19T10:14:34;16.20;99.90
1307;DHT22;646;48.696;9.114;2022-10-19T10:17:02;16.60;99.90
1307;DHT22;646;48.696;9.114;2022-10-19T10:19:30;16.60;99.90
1307;DHT22;646;48.696;9.114;2022-10-19T10:21:57;16.30;99.90
1307;DHT22;646;48.696;9.114;2022-10-19T10:24:29;16.30;99.90
1307;DHT22;646;48.696;9.114;2022-10-19T10:26:59;16.10;99.90
1307;DHT22;646;48.696;9.114;2022-10-19T10:29:33;16.50;99.90
1307;DHT22;646;48.696;9.114;2022-10-19T10:32:07;16.70;99.90
1307;DHT22;646;48.696;9.114;2022-10-19T10:34:38;16.90;99.90
1307;DHT22;646;48.696;9.114;2022-10-19T10:37:06;17.20;99.90
1307;DHT22;646;48.696;9.114;2022-10-19T10:39:39;16.80;99.90
1307;DHT22;646;48.696;9.114;2022-10-19T10:42:12;17.20;99.90
1307;DHT22;646;48.696;9.114;2022-10-19T10:44:49;17.80;99.90
1307;DHT22;646;48.696;9.114;2022-10-19T10:47:17;18.20;99.90
1307;DHT22;646;48.696;9.114;2022-10-19T10:49:53;18.20;99.90
1307;DHT22;646;48.696;9.114;2022-10-19T10:52:20;18.30;99.90
1307;DHT22;646;48.696;9.114;2022-10-19T10:55:31;18.20;99.90
1307;DHT22;646;48.696;9.114;2022-10-19T10:57:54;18.20;99.90
1307;DHT22;646;48.696;9.114;2022-10-19T11:00:23;18.20;99.90
1307;DHT22;646;48.696;9.114;2022-10-19T11:03:03;17.50;99.90
1307;DHT22;646;48.696;9.114;2022-10-19T11:05:37;17.60;99.90
1307;DHT22;646;48.696;9.114;2022-10-19T11:08:30;17.50;99.90
1307;DHT22;646;48.696;9.114;2022-10-19T11:13:29;17.20;99.90
1307;DHT22;646;48.696;9.114;2022-10-19T11:16:16;17.30;99.90
1307;DHT22;646;48.696;9.114;2022-10-19T11:18:59;17.60;99.90
1307;DHT22;646;48.696;9.114;2022-10-19T11:21:53;17.60;99.90
1307;DHT22;646;48.696;9.114;2022-10-19T11:24:48;17.90;99.90
1307;DHT22;646;48.696;9.114;2022-10-19T11:27:20;18.40;99.90
1307;DHT22;646;48.696;9.114;2022-10-19T11:37:32;18.90;99.90
1307;DHT22;646;48.696;9.114;2022-10-19T11:45:37;18.30;99.90
1307;DHT22;646;48.696;9.114;2022-10-19T11:50:55;18.60;99.90
1307;DHT22;646;48.696;9.114;2022-10-19T11:53:36;18.20;99.90
1307;DHT22;646;48.696;9.114;2022-10-19T11:56:18;18.60;99.90
1307;DHT22;646;48.696;9.114;2022-10-19T12:04:58;18.50;99.90
1307;DHT22;646;48.696;9.114;2022-10-19T12:13:48;18.70;99.90
1307;DHT22;646;48.696;9.114;2022-10-19T12:16:13;18.50;99.90
1307;DHT22;646;48.696;9.114;2022-10-19T12:18:52;18.20;99.90
1307;DHT22;646;48.696;9.114;2022-10-19T12:21:25;18.70;99.90
1307;DHT22;646;48.696;9.114;2022-10-19T12:23:52;18.10;99.90
1307;DHT22;646;48.696;9.114;2022-10-19T12:26:20;18.30;99.90
1307;DHT22;646;48.696;9.114;2022-10-19T12:28:49;18.10;99.90
1307;DHT22;646;48.696;9.114;2022-10-19T12:31:17;18.50;99.90
1307;DHT22;646;48.696;9.114;2022-10-19T12:34:03;18.50;99.90
1307;DHT22;646;48.696;9.114;2022-10-19T12:47:26;18.20;99.90
1307;DHT22;646;48.696;9.114;2022-10-19T12:49:53;18.30;99.90
1307;DHT22;646;48.696;9.114;2022-10-19T12:57:57;18.50;99.90
1307;DHT22;646;48.696;9.114;2022-10-19T13:00:26;18.00;99.90
1307;DHT22;646;48.696;9.114;2022-10-19T13:03:00;18.40;99.90
1307;DHT22;646;48.696;9.114;2022-10-19T13:05:28;18.00;99.90
1307;DHT22;646;48.696;9.114;2022-10-19T13:07:54;18.70;99.90
1307;DHT22;646;48.696;9.114;2022-10-19T13:10:23;18.40;99.90
1307;DHT22;646;48.696;9.114;2022-10-19T13:12:50;18.00;99.90
1307;DHT22;646;48.696;9.114;2022-10-19T13:18:01;18.60;99.50
1307;DHT22;646;48.696;9.114;2022-10-19T13:25:37;18.00;99.90
1307;DHT22;646;48.696;9.114;2022-10-19T13:41:09;18.40;99.90
1307;DHT22;646;48.696;9.114;2022-10-19T13:49:24;18.60;99.90
1307;DHT22;646;48.696;9.114;2022-10-19T13:55:26;18.60;99.90
1307;DHT22;646;48.696;9.114;2022-10-19T14:01:13;18.80;99.90
1307;DHT22;646;48.696;9.114;2022-10-19T14:06:40;18.80;99.90
1307;DHT22;646;48.696;9.114;2022-10-19T14:09:38;18.80;99.90
1307;DHT22;646;48.696;9.114;2022-10-19T14:12:25;18.90;99.20
1307;DHT22;646;48.696;9.114;2022-10-19T14:14:52;19.00;98.30
1307;DHT22;646;48.696;9.114;2022-10-19T14:17:23;18.90;97.90
1307;DHT22;646;48.696;9.114;2022-10-19T14:19:55;18.90;98.10
1307;DHT22;646;48.696;9.114;2022-10-19T14:22:34;18.80;98.20
1307;DHT22;646;48.696;9.114;2022-10-19T14:25:06;18.90;98.30
1307;DHT22;646;48.696;9.114;2022-10-19T14:27:32;18.70;98.30
1307;DHT22;646;48.696;9.114;2022-10-19T14:29:58;18.60;97.10
1307;DHT22;646;48.696;9.114;2022-10-19T14:32:26;18.70;96.60
1307;DHT22;646;48.696;9.114;2022-10-19T14:37:57;18.30;97.10
1307;DHT22;646;48.696;9.114;2022-10-19T14:40:38;18.50;97.10
1307;DHT22;646;48.696;9.114;2022-10-19T14:43:26;18.30;97.50
1307;DHT22;646;48.696;9.114;2022-10-19T14:46:10;18.30;97.90
1307;DHT22;646;48.696;9.114;2022-10-19T14:48:45;18.10;97.40
1307;DHT22;646;48.696;9.114;2022-10-19T14:54:04;18.30;97.30
1307;DHT22;646;48.696;9.114;2022-10-19T14:56:51;18.00;96.80
1307;DHT22;646;48.696;9.114;2022-10-19T15:01:52;17.90;97.70
1307;DHT22;646;48.696;9.114;2022-10-19T15:04:25;17.40;98.00
1307;DHT22;646;48.696;9.114;2022-10-19T15:06:52;17.60;97.90
1307;DHT22;646;48.696;9.114;2022-10-19T15:09:31;17.80;98.40
1307;DHT22;646;48.696;9.114;2022-10-19T15:12:08;17.70;98.20
1307;DHT22;646;48.696;9.114;2022-10-19T15:14:36;18.10;98.30
1307;DHT22;646;48.696;9.114;2022-10-19T15:17:04;18.00;98.50
1307;DHT22;646;48.696;9.114;2022-10-19T15:19:43;18.10;98.70
1307;DHT22;646;48.696;9.114;2022-10-19T15:24:40;17.30;98.40
1307;DHT22;646;48.696;9.114;2022-10-19T15:27:21;17.40;98.60
1307;DHT22;646;48.696;9.114;2022-10-19T15:29:54;17.50;99.00
1307;DHT22;646;48.696;9.114;2022-10-19T15:32:33;17.50;99.40
1307;DHT22;646;48.696;9.114;2022-10-19T15:35:49;17.30;99.50
1307;DHT22;646;48.696;9.114;2022-10-19T15:40:38;17.40;99.90
1307;DHT22;646;48.696;9.114;2022-10-19T15:43:52;17.30;99.90
1307;DHT22;646;48.696;9.114;2022-10-19T15:46:31;17.50;99.90
1307;DHT22;646;48.696;9.114;2022-10-19T15:51:45;16.50;99.90
1307;DHT22;646;48.696;9.114;2022-10-19T15:54:13;16.40;99.90
1307;DHT22;646;48.696;9.114;2022-10-19T15:56:43;16.20;99.90
1307;DHT22;646;48.696;9.114;2022-10-19T15:59:14;16.50;99.90
1307;DHT22;646;48.696;9.114;2022-10-19T16:01:40;16.60;99.90
1307;DHT22;646;48.696;9.114;2022-10-19T16:04:06;16.40;99.90
1307;DHT22;646;48.696;9.114;2022-10-19T16:06:33;16.20;99.90
1307;DHT22;646;48.696;9.114;2022-10-19T16:08:59;15.60;99.90
1307;DHT22;646;48.696;9.114;2022-10-19T16:11:25;15.60;99.90
1307;DHT22;646;48.696;9.114;2022-10-19T16:13:51;16.00;99.90
1307;DHT22;646;48.696;9.114;2022-10-19T16:16:25;15.90;99.90
1307;DHT22;646;48.696;9.114;2022-10-19T16:18:51;15.80;99.90
1307;DHT22;646;48.696;9.114;2022-10-19T16:21:18;15.70;99.90
1307;DHT22;646;48.696;9.114;2022-10-19T16:23:44;14.90;99.90
1307;DHT22;646;48.696;9.114;2022-10-19T16:26:12;15.10;99.90
1307;DHT22;646;48.696;9.114;2022-10-19T16:28:38;14.60;99.90
1307;DHT22;646;48.696;9.114;2022-10-19T16:31:03;14.50;99.90
1307;DHT22;646;48.696;9.114;2022-10-19T16:33:29;14.60;99.90
1307;DHT22;646;48.696;9.114;2022-10-19T16:35:54;14.50;99.90
1307;DHT22;646;48.696;9.114;2022-10-19T16:38:20;14.10;99.90
1307;DHT22;646;48.696;9.114;2022-10-19T16:40:46;14.50;99.90
1307;DHT22;646;48.696;9.114;2022-10-19T16:43:11;14.50;99.90
1307;DHT22;646;48.696;9.114;2022-10-19T16:45:41;14.30;99.90
1307;DHT22;646;48.696;9.114;2022-10-19T16:48:11;14.10;99.90
1307;DHT22;646;48.696;9.114;2022-10-19T16:50:37;14.00;99.90
1307;DHT22;646;48.696;9.114;2022-10-19T16:53:08;14.00;99.90
1307;DHT22;646;48.696;9.114;2022-10-19T16:55:37;14.00;99.90
1307;DHT22;646;48.696;9.114;2022-10-19T16:58:04;13.60;99.90
1307;DHT22;646;48.696;9.114;2022-10-19T17:00:29;13.90;99.90
1307;DHT22;646;48.696;9.114;2022-10-19T17:02:55;13.40;99.90
1307;DHT22;646;48.696;9.114;2022-10-19T17:05:20;13.70;99.90
1307;DHT22;646;48.696;9.114;2022-10-19T17:07:46;13.10;99.90
1307;DHT22;646;48.696;9.114;2022-10-19T17:10:12;13.40;99.90
1307;DHT22;646;48.696;9.114;2022-10-19T17:12:38;12.90;99.90
1307;DHT22;646;48.696;9.114;2022-10-19T17:15:05;13.40;99.90
1307;DHT22;646;48.696;9.114;2022-10-19T17:17:31;12.90;99.90
1307;DHT22;646;48.696;9.114;2022-10-19T17:19:57;13.20;99.90
1307;DHT22;646;48.696;9.114;2022-10-19T17:22:22;13.20;99.90
1307;DHT22;646;48.696;9.114;2022-10-19T17:24:48;13.10;99.90
1307;DHT22;646;48.696;9.114;2022-10-19T17:27:13;13.20;99.90
1307;DHT22;646;48.696;9.114;2022-10-19T17:29:39;12.60;99.90
1307;DHT22;646;48.696;9.114;2022-10-19T17:32:04;13.30;99.90
1307;DHT22;646;48.696;9.114;2022-10-19T17:34:30;13.00;99.90
1307;DHT22;646;48.696;9.114;2022-10-19T17:36:56;13.00;99.90
1307;DHT22;646;48.696;9.114;2022-10-19T17:39:22;13.40;99.90
1307;DHT22;646;48.696;9.114;2022-10-19T17:41:50;13.20;99.90
1307;DHT22;646;48.696;9.114;2022-10-19T17:44:17;13.30;99.90
1307;DHT22;646;48.696;9.114;2022-10-19T17:46:43;13.10;99.90
1307;DHT22;646;48.696;9.114;2022-10-19T17:49:09;13.30;99.90
1307;DHT22;646;48.696;9.114;2022-10-19T17:51:35;13.30;99.90
1307;DHT22;646;48.696;9.114;2022-10-19T17:54:21;13.40;99.90
1307;DHT22;646;48.696;9.114;2022-10-19T17:56:46;13.30;99.90
1307;DHT22;646;48.696;9.114;2022-10-19T17:59:12;13.20;99.90
1307;DHT22;646;48.696;9.114;2022-10-19T18:01:38;12.90;99.90
1307;DHT22;646;48.696;9.114;2022-10-19T18:04:04;13.00;99.90
1307;DHT22;646;48.696;9.114;2022-10-19T18:06:32;13.40;99.90
1307;DHT22;646;48.696;9.114;2022-10-19T18:08:59;13.30;99.90
1307;DHT22;646;48.696;9.114;2022-10-19T18:11:27;13.40;99.90
1307;DHT22;646;48.696;9.114;2022-10-19T18:13:55;13.50;99.90
1307;DHT22;646;48.696;9.114;2022-10-19T18:16:27;13.20;99.90
1307;DHT22;646;48.696;9.114;2022-10-19T18:18:55;13.70;99.90
1307;DHT22;646;48.696;9.114;2022-10-19T18:21:24;13.40;99.90
1307;DHT22;646;48.696;9.114;2022-10-19T18:23:50;13.60;99.90
1307;DHT22;646;48.696;9.114;2022-10-19T18:26:24;13.10;99.90
1307;DHT22;646;48.696;9.114;2022-10-19T18:28:51;13.70;99.90
1307;DHT22;646;48.696;9.114;2022-10-19T18:31:19;13.70;99.90
1307;DHT22;646;48.696;9.114;2022-10-19T18:33:46;13.40;99.90
1307;DHT22;646;48.696;9.114;2022-10-19T18:36:11;13.70;99.90
1307;DHT22;646;48.696;9.114;2022-10-19T18:38:38;13.40;99.90
1307;DHT22;646;48.696;9.114;2022-10-19T18:41:12;13.30;99.90
1307;DHT22;646;48.696;9.114;2022-10-19T18:43:39;14.10;99.90
1307;DHT22;646;48.696;9.114;2022-10-19T18:46:06;13.90;99.90